createdAt,value
2022-08-17T00:02:25.951Z,64.83
2022-08-17T00:04:53.694Z,65.27
2022-08-17T00:07:20.425Z,65.54
2022-08-17T00:09:47.049Z,65.91
2022-08-17T00:12:43.098Z,66.34
2022-08-17T00:15:00.297Z,66.21
2022-08-17T00:17:26.956Z,66.46
2022-08-17T00:19:53.650Z,67.48
2022-08-17T00:22:33.653Z,66.86
2022-08-17T00:25:09.686Z,66.65
2022-08-17T00:27:36.358Z,66.16
2022-08-17T00:30:05.520Z,67.11
2022-08-17T00:33:12.357Z,67.23
2022-08-17T00:35:40.154Z,67.02
2022-08-17T00:38:07.485Z,67.70
2022-08-17T00:40:40.654Z,67.81
2022-08-17T00:43:26.932Z,66.90
2022-08-17T00:45:54.398Z,67.89
2022-08-17T00:48:29.357Z,66.77
2022-08-17T00:51:20.199Z,65.96
2022-08-17T00:53:54.719Z,66.84
2022-08-17T00:56:28.922Z,66.05
2022-08-17T00:58:55.923Z,66.52
2022-08-17T01:01:23.203Z,67.03
2022-08-17T01:03:52.320Z,66.77
2022-08-17T01:06:21.702Z,67.85
2022-08-17T01:08:52.292Z,66.36
2022-08-17T01:11:27.399Z,66.22
2022-08-17T01:13:54.078Z,66.40
2022-08-17T01:16:25.367Z,66.08
2022-08-17T01:18:55.760Z,65.85
2022-08-17T01:21:46.140Z,66.62
2022-08-17T01:24:12.852Z,65.99
2022-08-17T01:26:43.053Z,67.36
2022-08-17T01:29:09.824Z,66.99
2022-08-17T01:31:43.230Z,66.60
2022-08-17T01:34:12.593Z,66.75
2022-08-17T01:36:42.735Z,65.70
2022-08-17T01:39:18.484Z,65.60
2022-08-17T01:41:46.642Z,65.62
2022-08-17T01:44:15.935Z,66.32
2022-08-17T01:46:42.694Z,66.34
2022-08-17T01:49:11.357Z,66.96
2022-08-17T01:51:38.278Z,66.37
2022-08-17T01:54:09.270Z,67.68
2022-08-17T01:56:40.768Z,67.70
2022-08-17T01:59:08.787Z,67.47
2022-08-17T02:01:35.913Z,68.19
2022-08-17T02:04:04.012Z,67.82
2022-08-17T02:06:52.895Z,68.29
2022-08-17T02:09:23.417Z,68.68
2022-08-17T02:11:54.077Z,69.15
2022-08-17T02:14:21.417Z,69.04
2022-08-17T02:16:48.101Z,70.18
2022-08-17T02:19:16.340Z,70.10
2022-08-17T02:21:45.640Z,68.89
2022-08-17T02:24:17.937Z,68.19
2022-08-17T02:27:04.774Z,69.99
2022-08-17T02:29:31.512Z,71.05
2022-08-17T02:31:58.184Z,69.57
2022-08-17T02:34:25.615Z,69.12
2022-08-17T02:36:52.262Z,69.97
2022-08-17T02:39:19.447Z,68.68
2022-08-17T02:41:46.091Z,69.71
2022-08-17T02:44:13.068Z,70.50
2022-08-17T02:47:00.112Z,71.13
2022-08-17T02:49:26.742Z,70.20
2022-08-17T02:51:53.372Z,70.08
2022-08-17T02:54:40.267Z,70.94
2022-08-17T02:57:06.700Z,71.81
2022-08-17T02:59:33.334Z,71.25
2022-08-17T03:01:59.985Z,72.83
2022-08-17T03:04:26.738Z,72.67
2022-08-17T03:06:53.378Z,73.35
2022-08-17T03:09:20.055Z,72.09
2022-08-17T03:11:46.711Z,71.61
2022-08-17T03:14:16.773Z,72.47
2022-08-17T03:16:43.425Z,72.76
2022-08-17T03:19:10.595Z,72.45
2022-08-17T03:21:37.238Z,73.68
2022-08-17T03:24:08.982Z,74.70
2022-08-17T03:26:35.860Z,73.81
2022-08-17T03:29:02.493Z,74.06
2022-08-17T03:31:29.133Z,74.45
2022-08-17T03:33:55.770Z,74.23
2022-08-17T03:36:22.412Z,75.31
2022-08-17T03:38:49.058Z,75.03
2022-08-17T03:41:17.870Z,75.34
2022-08-17T03:43:44.510Z,76.33
2022-08-17T03:46:28.865Z,77.06
2022-08-17T03:48:57.742Z,76.91
2022-08-17T03:51:25.194Z,75.51
2022-08-17T03:54:00.192Z,75.68
2022-08-17T03:56:28.985Z,75.86
2022-08-17T03:58:55.659Z,75.72
2022-08-17T04:01:22.362Z,76.42
2022-08-17T04:03:49.025Z,77.34
2022-08-17T04:06:15.674Z,76.26
2022-08-17T04:08:43.543Z,76.95
2022-08-17T04:11:10.179Z,77.95
2022-08-17T04:13:36.780Z,77.29
2022-08-17T04:16:04.790Z,76.96
2022-08-17T04:18:31.535Z,76.98
2022-08-17T04:21:00.468Z,76.63
2022-08-17T04:23:27.082Z,77.24
2022-08-17T04:25:53.781Z,76.87
2022-08-17T04:28:20.576Z,78.54
2022-08-17T04:30:47.707Z,80.00
2022-08-17T04:33:20.889Z,80.32
2022-08-17T04:35:50.306Z,80.74
2022-08-17T04:38:19.983Z,81.02
2022-08-17T04:40:47.751Z,82.11
2022-08-17T04:43:18.796Z,81.72
2022-08-17T04:45:55.342Z,79.57
2022-08-17T04:48:36.216Z,78.76
2022-08-17T04:51:07.698Z,78.77
2022-08-17T04:53:34.445Z,78.69
2022-08-17T04:56:01.391Z,78.37
2022-08-17T04:58:28.129Z,78.08
2022-08-17T05:00:54.856Z,78.62
2022-08-17T05:03:21.596Z,79.44
2022-08-17T05:05:51.601Z,78.53
2022-08-17T05:08:20.648Z,79.05
2022-08-17T05:10:48.172Z,78.63
2022-08-17T05:13:17.552Z,79.40
2022-08-17T05:15:47.644Z,78.77
2022-08-17T05:18:16.288Z,79.24
2022-08-17T05:20:44.390Z,78.75
2022-08-17T05:23:13.771Z,79.25
2022-08-17T05:25:47.508Z,78.32
2022-08-17T05:28:16.184Z,79.18
2022-08-17T05:30:44.376Z,78.25
2022-08-17T05:33:14.292Z,77.42
2022-08-17T05:35:44.210Z,77.13
2022-08-17T05:38:11.029Z,76.69
2022-08-17T05:40:37.751Z,73.89
2022-08-17T05:43:10.869Z,72.53
2022-08-17T05:45:55.340Z,72.65
2022-08-17T05:48:35.530Z,72.93
2022-08-17T05:51:11.435Z,73.30
2022-08-17T05:53:47.098Z,72.95
2022-08-17T05:56:29.592Z,71.74
2022-08-17T05:59:32.378Z,71.70
2022-08-17T06:02:06.536Z,70.83
2022-08-17T06:04:51.762Z,70.20
2022-08-17T06:07:37.001Z,70.45
2022-08-17T06:10:14.531Z,69.73
2022-08-17T06:13:10.607Z,68.59
2022-08-17T06:15:59.050Z,68.39
2022-08-17T06:18:31.809Z,66.28
2022-08-17T06:21:04.881Z,67.20
2022-08-17T06:23:53.561Z,66.38
2022-08-17T06:26:39.613Z,65.83
2022-08-17T06:29:22.112Z,65.97
2022-08-17T06:31:48.755Z,65.17
2022-08-17T06:34:15.494Z,65.11
2022-08-17T06:37:12.157Z,64.23
2022-08-17T06:40:15.937Z,62.49
2022-08-17T06:43:20.369Z,62.24
2022-08-17T06:45:56.332Z,60.38
2022-08-17T06:49:08.108Z,61.14
2022-08-17T06:51:45.501Z,60.86
2022-08-17T06:54:22.505Z,59.65
2022-08-17T06:56:59.640Z,59.32
2022-08-17T06:59:56.321Z,59.58
2022-08-17T07:02:56.918Z,57.02
2022-08-17T07:05:33.712Z,57.64
2022-08-17T07:08:17.575Z,54.68
2022-08-17T07:10:57.772Z,54.75
2022-08-17T07:13:30.978Z,55.47
2022-08-17T07:16:17.471Z,54.63
2022-08-17T07:18:44.634Z,53.97
2022-08-17T07:21:26.234Z,54.19
2022-08-17T07:23:56.418Z,53.65
2022-08-17T07:26:23.769Z,54.02
2022-08-17T07:28:51.318Z,51.92
2022-08-17T07:31:17.996Z,52.18
2022-08-17T07:34:05.925Z,52.67
2022-08-17T07:36:32.723Z,51.02
2022-08-17T07:39:00.896Z,51.29
2022-08-17T07:41:57.441Z,51.80
2022-08-17T07:44:16.345Z,52.38
2022-08-17T07:46:51.585Z,49.17
2022-08-17T07:49:22.621Z,49.49
2022-08-17T07:51:49.180Z,48.40
2022-08-17T07:54:15.758Z,50.19
2022-08-17T07:56:51.949Z,48.94
2022-08-17T07:59:36.798Z,49.12
2022-08-17T08:02:33.679Z,49.81
2022-08-17T08:05:13.708Z,45.66
2022-08-17T08:07:56.529Z,45.36
2022-08-17T08:10:39.437Z,47.05
2022-08-17T08:13:14.346Z,45.96
2022-08-17T08:15:53.800Z,44.62
2022-08-17T08:18:53.562Z,45.64
2022-08-17T08:21:42.151Z,44.70
2022-08-17T08:24:39.852Z,44.59
2022-08-17T08:27:06.602Z,43.57
2022-08-17T08:29:45.071Z,42.34
2022-08-17T08:32:17.742Z,43.35
2022-08-17T08:35:04.417Z,44.92
2022-08-17T08:37:43.547Z,43.80
2022-08-17T08:40:10.370Z,44.81
2022-08-17T08:43:00.718Z,43.89
2022-08-17T08:45:50.187Z,42.36
2022-08-17T08:48:58.270Z,41.83
2022-08-17T08:51:34.743Z,40.95
2022-08-17T08:54:14.104Z,43.79
2022-08-17T08:57:21.507Z,41.11
2022-08-17T08:59:58.334Z,41.61
2022-08-17T09:02:40.107Z,40.79
2022-08-17T09:05:34.626Z,40.84
2022-08-17T09:08:10.197Z,41.04
2022-08-17T09:10:53.159Z,40.00
2022-08-17T09:13:42.365Z,37.92
2022-08-17T09:16:32.901Z,39.94
2022-08-17T09:19:08.095Z,38.37
2022-08-17T09:21:48.446Z,40.55
2022-08-17T09:24:25.586Z,37.09
2022-08-17T09:27:15.842Z,36.23
2022-08-17T09:30:09.745Z,36.52
2022-08-17T09:32:49.773Z,35.53
2022-08-17T09:35:22.502Z,37.49
2022-08-17T09:37:58.133Z,35.78
2022-08-17T09:40:30.674Z,36.88
2022-08-17T09:43:31.238Z,37.29
2022-08-17T09:46:31.451Z,38.75
2022-08-17T09:49:12.104Z,36.55
2022-08-17T09:51:45.320Z,36.15
2022-08-17T09:54:39.012Z,36.15
2022-08-17T09:57:35.678Z,35.07
2022-08-17T10:00:05.366Z,35.35
2022-08-17T10:02:57.899Z,37.28
2022-08-17T10:05:45.324Z,35.28
2022-08-17T10:08:30.293Z,35.71
2022-08-17T10:11:38.926Z,36.58
2022-08-17T10:14:44.011Z,37.05
2022-08-17T10:17:29.212Z,35.68
2022-08-17T10:20:01.107Z,34.55
2022-08-17T10:22:58.017Z,34.57
2022-08-17T10:25:33.465Z,34.29
2022-08-17T10:28:19.701Z,36.13
2022-08-17T10:31:05.276Z,35.51
2022-08-17T10:34:07.567Z,34.04
2022-08-17T10:36:43.199Z,32.75
2022-08-17T10:39:50.541Z,34.11
2022-08-17T10:42:33.228Z,33.68
2022-08-17T10:45:20.431Z,33.36
2022-08-17T10:48:02.564Z,32.23
2022-08-17T10:50:56.494Z,32.62
2022-08-17T10:53:32.410Z,33.80
2022-08-17T10:56:14.108Z,31.87
2022-08-17T10:58:54.628Z,32.75
2022-08-17T11:01:33.484Z,31.98
2022-08-17T11:04:18.623Z,29.52
2022-08-17T11:06:57.082Z,30.57
2022-08-17T11:09:47.694Z,31.08
2022-08-17T11:12:38.512Z,29.88
2022-08-17T11:15:24.259Z,30.69
2022-08-17T11:17:56.598Z,31.60
2022-08-17T11:20:37.597Z,30.63
2022-08-17T11:23:28.348Z,31.30
2022-08-17T11:25:58.311Z,32.57
2022-08-17T11:28:29.362Z,30.54
2022-08-17T11:31:38.403Z,30.10
2022-08-17T11:34:17.728Z,29.69
2022-08-17T11:37:11.993Z,33.03
2022-08-17T11:40:17.310Z,29.66
2022-08-17T11:43:08.626Z,29.23
2022-08-17T11:46:00.238Z,28.12
2022-08-17T11:48:36.851Z,30.16
2022-08-17T11:51:13.725Z,30.18
2022-08-17T11:53:40.331Z,28.87
2022-08-17T11:56:30.657Z,28.22
2022-08-17T11:58:57.632Z,28.85
2022-08-17T12:01:24.181Z,27.50
2022-08-17T12:03:56.069Z,27.66
2022-08-17T12:06:22.806Z,29.27
2022-08-17T12:09:05.566Z,27.52
2022-08-17T12:12:13.335Z,28.47
2022-08-17T12:17:41.664Z,27.78
2022-08-17T12:20:29.171Z,27.17
2022-08-17T12:23:07.776Z,27.62
2022-08-17T12:25:50.110Z,29.26
2022-08-17T12:28:29.712Z,29.24
2022-08-17T12:31:07.455Z,28.34
2022-08-17T12:33:37.135Z,29.19
2022-08-17T12:36:07.085Z,29.40
2022-08-17T12:38:36.994Z,30.27
2022-08-17T12:41:06.503Z,29.33
2022-08-17T12:43:33.147Z,29.01
2022-08-17T12:46:01.041Z,28.60
2022-08-17T12:48:40.087Z,27.54
2022-08-17T12:51:26.260Z,27.41
2022-08-17T12:53:55.159Z,27.64
2022-08-17T12:56:21.848Z,27.21
2022-08-17T12:58:50.748Z,26.35
2022-08-17T13:01:18.199Z,26.55
2022-08-17T13:03:50.267Z,27.12
2022-08-17T13:06:32.850Z,27.25
2022-08-17T13:09:13.239Z,27.40
2022-08-17T13:11:50.014Z,27.27
2022-08-17T13:14:16.808Z,26.75
2022-08-17T13:16:53.166Z,27.37
2022-08-17T13:19:29.775Z,26.50
2022-08-17T13:22:11.928Z,28.07
2022-08-17T13:24:39.237Z,28.18
2022-08-17T13:27:12.658Z,27.39
2022-08-17T13:29:45.385Z,27.31
2022-08-17T13:32:22.680Z,28.37
2022-08-17T13:35:08.333Z,27.85
2022-08-17T13:37:57.390Z,26.99
2022-08-17T13:40:41.798Z,26.39
2022-08-17T13:43:09.273Z,27.69
2022-08-17T13:45:43.812Z,27.47
2022-08-17T13:48:20.430Z,26.25
2022-08-17T13:50:55.643Z,26.46
2022-08-17T13:53:27.185Z,27.88
2022-08-17T13:56:05.780Z,27.24
2022-08-17T13:58:59.645Z,25.64
2022-08-17T14:01:39.888Z,25.43
2022-08-17T14:04:13.899Z,26.52
2022-08-17T14:07:09.968Z,27.20
2022-08-17T14:09:40.946Z,26.67
2022-08-17T14:12:13.842Z,26.31
2022-08-17T14:14:40.554Z,27.97
2022-08-17T14:17:07.972Z,27.76
2022-08-17T14:19:36.503Z,28.06
2022-08-17T14:22:04.491Z,27.72
2022-08-17T14:24:33.512Z,26.84
2022-08-17T14:27:02.455Z,26.43
2022-08-17T14:29:32.270Z,26.50
2022-08-17T14:32:04.332Z,27.01
2022-08-17T14:34:30.954Z,26.14
2022-08-17T14:36:57.640Z,25.80
2022-08-17T14:39:24.328Z,26.28
2022-08-17T14:41:51.041Z,25.83
2022-08-17T14:44:17.655Z,26.02
2022-08-17T14:46:45.011Z,26.23
2022-08-17T14:49:13.120Z,25.90
2022-08-17T14:51:44.249Z,24.31
2022-08-17T14:54:32.978Z,25.42
2022-08-17T14:57:23.130Z,25.03
2022-08-17T14:59:54.261Z,25.03
2022-08-17T15:02:29.375Z,25.33
2022-08-17T15:05:05.367Z,24.48
2022-08-17T15:07:32.125Z,26.27
2022-08-17T15:10:00.630Z,25.52
2022-08-17T15:12:32.795Z,24.26
2022-08-17T15:15:01.276Z,26.49
2022-08-17T15:17:45.080Z,24.80
2022-08-17T15:20:32.546Z,25.92
2022-08-17T15:22:59.439Z,25.29
2022-08-17T15:25:28.717Z,24.32
2022-08-17T15:27:55.595Z,23.81
2022-08-17T15:30:22.378Z,24.78
2022-08-17T15:32:54.540Z,22.91
2022-08-17T15:35:29.401Z,23.00
2022-08-17T15:37:59.764Z,22.53
2022-08-17T15:40:34.891Z,22.33
2022-08-17T15:43:08.245Z,21.14
2022-08-17T15:45:35.030Z,21.23
2022-08-17T15:48:01.704Z,22.21
2022-08-17T15:50:28.325Z,22.74
2022-08-17T15:52:58.630Z,22.86
2022-08-17T15:55:27.799Z,22.70
2022-08-17T15:57:54.646Z,21.60
2022-08-17T16:00:22.463Z,23.01
2022-08-17T16:03:14.118Z,22.51
2022-08-17T16:05:35.788Z,22.60
2022-08-17T16:08:03.995Z,24.42
2022-08-17T16:10:34.846Z,24.46
2022-08-17T16:13:03.568Z,23.91
2022-08-17T16:15:30.370Z,24.50
2022-08-17T16:17:57.241Z,25.36
2022-08-17T16:20:25.678Z,24.23
2022-08-17T16:22:52.699Z,24.12
2022-08-17T16:25:38.450Z,23.79
2022-08-17T16:28:16.727Z,22.38
2022-08-17T16:30:43.465Z,24.24
2022-08-17T16:33:11.545Z,24.71
2022-08-17T16:35:38.806Z,24.35
2022-08-17T16:38:07.106Z,25.64
2022-08-17T16:40:35.855Z,24.08
2022-08-17T16:43:03.728Z,25.43
2022-08-17T16:45:30.783Z,24.25
2022-08-17T16:47:57.409Z,23.81
2022-08-17T16:50:24.199Z,24.12
2022-08-17T16:52:51.260Z,24.40
2022-08-17T16:55:21.336Z,26.58
2022-08-17T16:57:50.643Z,26.08
2022-08-17T17:00:18.054Z,25.83
2022-08-17T17:02:48.019Z,27.23
2022-08-17T17:05:46.826Z,26.55
2022-08-17T17:08:29.685Z,26.79
2022-08-17T17:10:59.288Z,26.85
2022-08-17T17:13:35.520Z,27.19
2022-08-17T17:16:21.870Z,26.77
2022-08-17T17:19:08.564Z,26.62
2022-08-17T17:22:00.338Z,28.50
2022-08-17T17:25:01.674Z,29.09
2022-08-17T17:27:45.928Z,30.17
2022-08-17T17:30:26.279Z,29.31
2022-08-17T17:32:56.373Z,30.25
2022-08-17T17:35:34.943Z,30.48
2022-08-17T17:38:10.654Z,31.07
2022-08-17T17:40:44.630Z,32.28
2022-08-17T17:43:37.686Z,30.64
2022-08-17T17:46:27.492Z,31.85
2022-08-17T17:48:57.169Z,30.98
2022-08-17T17:52:09.201Z,30.61
2022-08-17T17:54:30.209Z,31.27
2022-08-17T17:57:27.646Z,30.72
2022-08-17T18:00:00.035Z,31.71
2022-08-17T18:02:35.574Z,31.94
2022-08-17T18:05:18.551Z,31.83
2022-08-17T18:07:55.893Z,32.29
2022-08-17T18:10:47.430Z,31.86
2022-08-17T18:13:31.047Z,32.62
2022-08-17T18:15:59.622Z,33.31
2022-08-17T18:18:32.285Z,33.88
2022-08-17T18:21:09.184Z,33.56
2022-08-17T18:23:35.899Z,33.24
2022-08-17T18:26:02.518Z,34.36
2022-08-17T18:28:36.837Z,34.43
2022-08-17T18:31:20.525Z,33.50
2022-08-17T18:33:53.799Z,34.18
2022-08-17T18:36:32.595Z,34.70
2022-08-17T18:39:17.787Z,35.00
2022-08-17T18:41:56.510Z,34.56
2022-08-17T18:44:43.306Z,34.23
2022-08-17T18:47:21.379Z,34.71
2022-08-17T18:50:19.748Z,34.96
2022-08-17T18:52:46.412Z,35.55
2022-08-17T18:55:25.254Z,34.66
2022-08-17T18:57:56.183Z,35.61
2022-08-17T19:00:43.236Z,35.51
2022-08-17T19:03:15.716Z,36.16
2022-08-17T19:05:55.225Z,36.44
2022-08-17T19:08:30.671Z,36.80
2022-08-17T19:11:24.477Z,37.36
2022-08-17T19:14:08.320Z,37.72
2022-08-17T19:16:52.241Z,37.77
2022-08-17T19:19:25.557Z,37.17
2022-08-17T19:21:58.437Z,37.15
2022-08-17T19:24:28.196Z,38.24
2022-08-17T19:27:14.505Z,38.35
2022-08-17T19:29:52.007Z,39.29
2022-08-17T19:32:26.395Z,38.96
2022-08-17T19:34:53.105Z,39.16
2022-08-17T19:37:50.402Z,38.86
2022-08-17T19:40:52.747Z,38.76
2022-08-17T19:43:38.910Z,39.92
2022-08-17T19:46:28.465Z,39.51
2022-08-17T19:49:10.533Z,39.53
2022-08-17T19:51:57.578Z,39.60
2022-08-17T19:55:10.734Z,39.25
2022-08-17T19:57:43.081Z,39.81
2022-08-17T20:00:14.602Z,39.95
2022-08-17T20:02:47.283Z,39.74
2022-08-17T20:05:23.274Z,40.67
2022-08-17T20:07:52.897Z,39.97
2022-08-17T20:10:59.637Z,40.53
2022-08-17T20:13:41.203Z,41.24
2022-08-17T20:16:10.155Z,40.80
2022-08-17T20:18:47.710Z,41.46
2022-08-17T20:21:36.639Z,40.99
2022-08-17T20:24:20.270Z,41.00
2022-08-17T20:27:16.820Z,40.66
2022-08-17T20:30:02.205Z,40.22
2022-08-17T20:32:34.341Z,40.27
2022-08-17T20:35:17.933Z,41.72
2022-08-17T20:38:03.075Z,40.23
2022-08-17T20:40:32.374Z,40.48
2022-08-17T20:43:38.865Z,40.39
2022-08-17T20:46:30.436Z,40.80
2022-08-17T20:49:14.677Z,40.68
2022-08-17T20:52:00.617Z,40.99
2022-08-17T20:54:50.738Z,42.23
2022-08-17T20:57:32.618Z,43.60
2022-08-17T21:00:02.126Z,43.43
2022-08-17T21:02:29.077Z,42.17
2022-08-17T21:05:06.978Z,42.23
2022-08-17T21:07:41.102Z,42.42
2022-08-17T21:10:25.666Z,43.47
2022-08-17T21:12:52.224Z,43.51
2022-08-17T21:15:30.915Z,43.11
2022-08-17T21:18:24.898Z,42.76
2022-08-17T21:21:18.767Z,44.77
2022-08-17T21:23:57.444Z,44.24
2022-08-17T21:26:33.275Z,44.40
2022-08-17T21:29:30.812Z,44.38
2022-08-17T21:31:59.331Z,44.06
2022-08-17T21:34:31.643Z,45.15
2022-08-17T21:37:19.943Z,44.38
2022-08-17T21:39:52.300Z,44.35
2022-08-17T21:42:26.845Z,44.45
2022-08-17T21:44:59.386Z,44.08
2022-08-17T21:47:29.162Z,43.99
2022-08-17T21:50:15.271Z,44.52
2022-08-17T21:52:42.150Z,45.30
2022-08-17T21:55:21.144Z,46.52
2022-08-17T21:57:53.081Z,45.67
2022-08-17T22:00:35.911Z,46.72
2022-08-17T22:03:05.158Z,45.86
2022-08-17T22:05:37.815Z,46.00
2022-08-17T22:08:19.585Z,46.43
2022-08-17T22:10:49.095Z,46.57
2022-08-17T22:13:18.499Z,46.28
2022-08-17T22:16:15.359Z,45.51
2022-08-17T22:18:55.296Z,47.19
2022-08-17T22:21:22.556Z,47.35
2022-08-17T22:24:18.558Z,46.51
2022-08-17T22:27:06.037Z,46.92
2022-08-17T22:29:53.233Z,48.29
2022-08-17T22:32:30.058Z,52.56
2022-08-17T22:35:37.086Z,50.78
2022-08-17T22:38:18.759Z,51.08
2022-08-17T22:40:53.518Z,51.54
2022-08-17T22:43:25.885Z,51.36
2022-08-17T22:45:56.129Z,50.83
2022-08-17T22:48:27.533Z,49.92
2022-08-17T22:51:13.705Z,48.97
2022-08-17T22:53:49.462Z,48.52
2022-08-17T22:56:24.087Z,49.20
2022-08-17T22:58:59.126Z,48.99
2022-08-17T23:01:32.601Z,49.11
2022-08-17T23:04:07.959Z,49.08
2022-08-17T23:06:37.454Z,48.25
2022-08-17T23:09:06.860Z,49.07
2022-08-17T23:11:48.897Z,48.62
2022-08-17T23:14:18.610Z,49.09
2022-08-17T23:16:46.189Z,48.34
2022-08-17T23:19:16.208Z,48.25
2022-08-17T23:21:44.037Z,49.46
2022-08-17T23:24:18.776Z,49.53
2022-08-17T23:26:45.458Z,49.19
2022-08-17T23:29:12.142Z,49.45
2022-08-17T23:31:40.112Z,49.68
2022-08-17T23:34:10.653Z,49.72
2022-08-17T23:36:37.656Z,49.39
2022-08-17T23:39:05.841Z,50.63
2022-08-17T23:41:36.275Z,49.93
2022-08-17T23:44:06.135Z,49.57
2022-08-17T23:46:33.354Z,50.47
2022-08-17T23:49:00.136Z,51.68
2022-08-17T23:51:40.759Z,53.48
2022-08-17T23:54:15.279Z,53.02
2022-08-17T23:56:42.980Z,52.88
2022-08-17T23:59:09.605Z,52.05
